<?xml version="1.0" encoding="utf-8"?>
<gpx xmlns:xsi="http://www.w3.org/2001/XMLSchema-instance" xmlns:xsd="http://www.w3.org/2001/XMLSchema" version="1.1" creator="Shapelink.com" xmlns="http://www.topografix.com/GPX/1/1" xmlns:gpxtpx="http://www.garmin.com/xmlschemas/TrackPointExtension/v1">
  <metadata>
    <name>Löpning 6.17 km, 2012-03-19</name>
    <desc></desc>
    <author><name>Dennis Rehn</name></author> 
    <time>2012-03-19T06:53:11Z</time>
  </metadata>
  <trk>
    <name>Löpning 6.17 km, 2012-03-19</name>
    <trkseg>
      <trkpt lat="59.9939875356" lon="23.4261148259">
        <ele>49.4</ele>
        <time>2012-03-19T06:53:11Z</time>
      </trkpt>
      <trkpt lat="59.9940433591" lon="23.4259217907">
        <ele>61.6</ele>
        <time>2012-03-19T06:53:16Z</time>
      </trkpt>
      <trkpt lat="59.9940769705" lon="23.4258561605">
        <ele>66.8</ele>
        <time>2012-03-19T06:53:18Z</time>
      </trkpt>
      <trkpt lat="59.994133716" lon="23.4256648017">
        <ele>78.6</ele>
        <time>2012-03-19T06:53:23Z</time>
      </trkpt>
      <trkpt lat="59.9942363942" lon="23.4254690005">
        <ele>88.8</ele>
        <time>2012-03-19T06:53:28Z</time>
      </trkpt>
      <trkpt lat="59.9945005079" lon="23.4251671683">
        <ele>94.8</ele>
        <time>2012-03-19T06:53:32Z</time>
      </trkpt>
      <trkpt lat="59.9947629452" lon="23.4247735543">
        <ele>96.6</ele>
        <time>2012-03-19T06:53:40Z</time>
      </trkpt>
      <trkpt lat="59.9948338561" lon="23.4246604824">
        <ele>95.2</ele>
        <time>2012-03-19T06:53:43Z</time>
      </trkpt>
      <trkpt lat="59.9950209401" lon="23.4244256216">
        <ele>90.4</ele>
        <time>2012-03-19T06:53:51Z</time>
      </trkpt>
      <trkpt lat="59.9952430604" lon="23.4241612565">
        <ele>81.2</ele>
        <time>2012-03-19T06:54:04Z</time>
      </trkpt>
      <trkpt lat="59.995255298" lon="23.4241259687">
        <ele>80</ele>
        <time>2012-03-19T06:54:05Z</time>
      </trkpt>
      <trkpt lat="59.9952601595" lon="23.4239731666">
        <ele>76.4</ele>
        <time>2012-03-19T06:54:08Z</time>
      </trkpt>
      <trkpt lat="59.9951981334" lon="23.4236071291">
        <ele>66.8</ele>
        <time>2012-03-19T06:54:15Z</time>
      </trkpt>
      <trkpt lat="59.9951226125" lon="23.4233839191">
        <ele>60.6</ele>
        <time>2012-03-19T06:54:20Z</time>
      </trkpt>
      <trkpt lat="59.9950485165" lon="23.4231683366">
        <ele>54.6</ele>
        <time>2012-03-19T06:54:25Z</time>
      </trkpt>
      <trkpt lat="59.9949812937" lon="23.4229053964">
        <ele>48.6</ele>
        <time>2012-03-19T06:54:31Z</time>
      </trkpt>
      <trkpt lat="59.9949752587" lon="23.4226529336">
        <ele>44.4</ele>
        <time>2012-03-19T06:54:36Z</time>
      </trkpt>
      <trkpt lat="59.9949758454" lon="23.4224143009">
        <ele>41</ele>
        <time>2012-03-19T06:54:41Z</time>
      </trkpt>
      <trkpt lat="59.9949958782" lon="23.4220824614">
        <ele>37.2</ele>
        <time>2012-03-19T06:54:48Z</time>
      </trkpt>
      <trkpt lat="59.9949978898" lon="23.4218272326">
        <ele>35</ele>
        <time>2012-03-19T06:54:53Z</time>
      </trkpt>
      <trkpt lat="59.9950136478" lon="23.4215849957">
        <ele>33</ele>
        <time>2012-03-19T06:54:58Z</time>
      </trkpt>
      <trkpt lat="59.9950128934" lon="23.4213297668">
        <ele>31.6</ele>
        <time>2012-03-19T06:55:03Z</time>
      </trkpt>
      <trkpt lat="59.9949878316" lon="23.4210482188">
        <ele>29.8</ele>
        <time>2012-03-19T06:55:09Z</time>
      </trkpt>
      <trkpt lat="59.994944581" lon="23.4208092508">
        <ele>28.6</ele>
        <time>2012-03-19T06:55:14Z</time>
      </trkpt>
      <trkpt lat="59.9948926132" lon="23.4205751444">
        <ele>27.2</ele>
        <time>2012-03-19T06:55:19Z</time>
      </trkpt>
      <trkpt lat="59.994817679" lon="23.4202593982">
        <ele>26.4</ele>
        <time>2012-03-19T06:55:26Z</time>
      </trkpt>
      <trkpt lat="59.994763029" lon="23.4200458274">
        <ele>25.4</ele>
        <time>2012-03-19T06:55:31Z</time>
      </trkpt>
      <trkpt lat="59.9947165933" lon="23.4198517026">
        <ele>24.6</ele>
        <time>2012-03-19T06:55:35Z</time>
      </trkpt>
      <trkpt lat="59.9946416591" lon="23.4195162589">
        <ele>24</ele>
        <time>2012-03-19T06:55:42Z</time>
      </trkpt>
      <trkpt lat="59.9945813932" lon="23.4192887742">
        <ele>23.8</ele>
        <time>2012-03-19T06:55:47Z</time>
      </trkpt>
      <trkpt lat="59.9945142542" lon="23.4190055498">
        <ele>22.6</ele>
        <time>2012-03-19T06:55:53Z</time>
      </trkpt>
      <trkpt lat="59.9944581793" lon="23.41877203">
        <ele>22</ele>
        <time>2012-03-19T06:55:58Z</time>
      </trkpt>
      <trkpt lat="59.9944186167" lon="23.4185949205">
        <ele>21.8</ele>
        <time>2012-03-19T06:56:02Z</time>
      </trkpt>
      <trkpt lat="59.9943640506" lon="23.4183856245">
        <ele>21.6</ele>
        <time>2012-03-19T06:56:07Z</time>
      </trkpt>
      <trkpt lat="59.9943106579" lon="23.4181740653">
        <ele>21.4</ele>
        <time>2012-03-19T06:56:12Z</time>
      </trkpt>
      <trkpt lat="59.9942409205" lon="23.4179187526">
        <ele>21.4</ele>
        <time>2012-03-19T06:56:18Z</time>
      </trkpt>
      <trkpt lat="59.9941397509" lon="23.4176923575">
        <ele>21.4</ele>
        <time>2012-03-19T06:56:24Z</time>
      </trkpt>
      <trkpt lat="59.9939769744" lon="23.4175044353">
        <ele>21.4</ele>
        <time>2012-03-19T06:56:31Z</time>
      </trkpt>
      <trkpt lat="59.9938690994" lon="23.4174183532">
        <ele>21.2</ele>
        <time>2012-03-19T06:56:36Z</time>
      </trkpt>
      <trkpt lat="59.9937679298" lon="23.4173306785">
        <ele>21.8</ele>
        <time>2012-03-19T06:56:41Z</time>
      </trkpt>
      <trkpt lat="59.993653014" lon="23.4171515573">
        <ele>22.8</ele>
        <time>2012-03-19T06:56:47Z</time>
      </trkpt>
      <trkpt lat="59.9935601425" lon="23.4169306942">
        <ele>24.2</ele>
        <time>2012-03-19T06:56:53Z</time>
      </trkpt>
      <trkpt lat="59.9934937579" lon="23.4167348092">
        <ele>25</ele>
        <time>2012-03-19T06:56:58Z</time>
      </trkpt>
      <trkpt lat="59.9934082625" lon="23.4164850286">
        <ele>26.2</ele>
        <time>2012-03-19T06:57:04Z</time>
      </trkpt>
      <trkpt lat="59.9933162292" lon="23.4162298836">
        <ele>27</ele>
        <time>2012-03-19T06:57:10Z</time>
      </trkpt>
      <trkpt lat="59.9932268782" lon="23.4159705476">
        <ele>27.4</ele>
        <time>2012-03-19T06:57:16Z</time>
      </trkpt>
      <trkpt lat="59.993152866" lon="23.4157591561">
        <ele>27.4</ele>
        <time>2012-03-19T06:57:21Z</time>
      </trkpt>
      <trkpt lat="59.9930496848" lon="23.4154650352">
        <ele>27.6</ele>
        <time>2012-03-19T06:57:28Z</time>
      </trkpt>
      <trkpt lat="59.9929863177" lon="23.4152517997">
        <ele>27.6</ele>
        <time>2012-03-19T06:57:33Z</time>
      </trkpt>
      <trkpt lat="59.9929343499" lon="23.4150361334">
        <ele>27.6</ele>
        <time>2012-03-19T06:57:38Z</time>
      </trkpt>
      <trkpt lat="59.9928765148" lon="23.4147270089">
        <ele>27.8</ele>
        <time>2012-03-19T06:57:45Z</time>
      </trkpt>
      <trkpt lat="59.9928311687" lon="23.4144429463">
        <ele>27.8</ele>
        <time>2012-03-19T06:57:51Z</time>
      </trkpt>
      <trkpt lat="59.9928173386" lon="23.4142065767">
        <ele>27.8</ele>
        <time>2012-03-19T06:57:56Z</time>
      </trkpt>
      <trkpt lat="59.9928178415" lon="23.4139960234">
        <ele>27.8</ele>
        <time>2012-03-19T06:58:00Z</time>
      </trkpt>
      <trkpt lat="59.9928284027" lon="23.413779016">
        <ele>27.8</ele>
        <time>2012-03-19T06:58:05Z</time>
      </trkpt>
      <trkpt lat="59.9928413946" lon="23.4136934368">
        <ele>27.8</ele>
        <time>2012-03-19T06:58:07Z</time>
      </trkpt>
      <trkpt lat="59.9928541351" lon="23.4133947059">
        <ele>27.8</ele>
        <time>2012-03-19T06:58:13Z</time>
      </trkpt>
      <trkpt lat="59.9928649478" lon="23.4131564923">
        <ele>27.8</ele>
        <time>2012-03-19T06:58:18Z</time>
      </trkpt>
      <trkpt lat="59.9928772691" lon="23.4128422549">
        <ele>27.8</ele>
        <time>2012-03-19T06:58:24Z</time>
      </trkpt>
      <trkpt lat="59.9928851481" lon="23.4125233236">
        <ele>27.8</ele>
        <time>2012-03-19T06:58:30Z</time>
      </trkpt>
      <trkpt lat="59.9928973019" lon="23.4122187253">
        <ele>27.8</ele>
        <time>2012-03-19T06:58:36Z</time>
      </trkpt>
      <trkpt lat="59.9929035045" lon="23.4114989716">
        <ele>27.8</ele>
        <time>2012-03-19T06:58:50Z</time>
      </trkpt>
      <trkpt lat="59.9928919375" lon="23.4113390449">
        <ele>27.8</ele>
        <time>2012-03-19T06:58:53Z</time>
      </trkpt>
      <trkpt lat="59.9928761795" lon="23.411237624">
        <ele>27.8</ele>
        <time>2012-03-19T06:58:55Z</time>
      </trkpt>
      <trkpt lat="59.9928197693" lon="23.4109488675">
        <ele>27.2</ele>
        <time>2012-03-19T06:59:01Z</time>
      </trkpt>
      <trkpt lat="59.9927547258" lon="23.4107160183">
        <ele>26.6</ele>
        <time>2012-03-19T06:59:06Z</time>
      </trkpt>
      <trkpt lat="59.9926843178" lon="23.4104323748">
        <ele>26.2</ele>
        <time>2012-03-19T06:59:12Z</time>
      </trkpt>
      <trkpt lat="59.9925956373" lon="23.4101502401">
        <ele>25.8</ele>
        <time>2012-03-19T06:59:18Z</time>
      </trkpt>
      <trkpt lat="59.9924876784" lon="23.4099056562">
        <ele>24.8</ele>
        <time>2012-03-19T06:59:24Z</time>
      </trkpt>
      <trkpt lat="59.9923767859" lon="23.4097513454">
        <ele>24.2</ele>
        <time>2012-03-19T06:59:29Z</time>
      </trkpt>
      <trkpt lat="59.992264217" lon="23.4096291373">
        <ele>24</ele>
        <time>2012-03-19T06:59:34Z</time>
      </trkpt>
      <trkpt lat="59.992139159" lon="23.4094802748">
        <ele>23.8</ele>
        <time>2012-03-19T06:59:40Z</time>
      </trkpt>
      <trkpt lat="59.9921264185" lon="23.4089957172">
        <ele>22.6</ele>
        <time>2012-03-19T06:59:50Z</time>
      </trkpt>
      <trkpt lat="59.9921255804" lon="23.4086403246">
        <ele>22</ele>
        <time>2012-03-19T06:59:57Z</time>
      </trkpt>
      <trkpt lat="59.9920716847" lon="23.4083477963">
        <ele>21.8</ele>
        <time>2012-03-19T07:00:03Z</time>
      </trkpt>
      <trkpt lat="59.9920103292" lon="23.4081037154">
        <ele>21.6</ele>
        <time>2012-03-19T07:00:08Z</time>
      </trkpt>
      <trkpt lat="59.9919864408" lon="23.4080092513">
        <ele>21</ele>
        <time>2012-03-19T07:00:13Z</time>
      </trkpt>
      <trkpt lat="59.9919849321" lon="23.4079520868">
        <ele>20.2</ele>
        <time>2012-03-19T07:00:19Z</time>
      </trkpt>
      <trkpt lat="59.9919992651" lon="23.4079637376">
        <ele>20</ele>
        <time>2012-03-19T07:00:22Z</time>
      </trkpt>
      <trkpt lat="59.9920752051" lon="23.4079117698">
        <ele>19.8</ele>
        <time>2012-03-19T07:00:29Z</time>
      </trkpt>
      <trkpt lat="59.9921265862" lon="23.4078670943">
        <ele>19.6</ele>
        <time>2012-03-19T07:00:33Z</time>
      </trkpt>
      <trkpt lat="59.9921932223" lon="23.4078070799">
        <ele>19.6</ele>
        <time>2012-03-19T07:00:39Z</time>
      </trkpt>
      <trkpt lat="59.9922255764" lon="23.4078058226">
        <ele>19.6</ele>
        <time>2012-03-19T07:00:42Z</time>
      </trkpt>
      <trkpt lat="59.992284585" lon="23.4077226742">
        <ele>19.6</ele>
        <time>2012-03-19T07:00:53Z</time>
      </trkpt>
      <trkpt lat="59.9923203757" lon="23.4077142923">
        <ele>19.6</ele>
        <time>2012-03-19T07:00:58Z</time>
      </trkpt>
      <trkpt lat="59.9923222197" lon="23.4076734724">
        <ele>19.4</ele>
        <time>2012-03-19T07:01:03Z</time>
      </trkpt>
      <trkpt lat="59.9922945595" lon="23.4076438005">
        <ele>19.4</ele>
        <time>2012-03-19T07:01:10Z</time>
      </trkpt>
      <trkpt lat="59.992315598" lon="23.4076396096">
        <ele>19.4</ele>
        <time>2012-03-19T07:01:18Z</time>
      </trkpt>
      <trkpt lat="59.9923302664" lon="23.407677831">
        <ele>19.4</ele>
        <time>2012-03-19T07:01:22Z</time>
      </trkpt>
      <trkpt lat="59.9923345411" lon="23.4076816867">
        <ele>19.4</ele>
        <time>2012-03-19T07:01:29Z</time>
      </trkpt>
      <trkpt lat="59.9923074676" lon="23.4077256917">
        <ele>19.4</ele>
        <time>2012-03-19T07:02:20Z</time>
      </trkpt>
      <trkpt lat="59.9923000915" lon="23.4077345765">
        <ele>19.4</ele>
        <time>2012-03-19T07:02:29Z</time>
      </trkpt>
      <trkpt lat="59.9922941404" lon="23.4077308046">
        <ele>19.4</ele>
        <time>2012-03-19T07:02:43Z</time>
      </trkpt>
      <trkpt lat="59.9923104012" lon="23.4077571238">
        <ele>19.4</ele>
        <time>2012-03-19T07:02:47Z</time>
      </trkpt>
      <trkpt lat="59.9923098983" lon="23.4077665953">
        <ele>19.4</ele>
        <time>2012-03-19T07:02:53Z</time>
      </trkpt>
      <trkpt lat="59.9922834953" lon="23.407615805">
        <ele>25.6</ele>
        <time>2012-03-19T07:05:52Z</time>
      </trkpt>
      <trkpt lat="59.9923701642" lon="23.4073752444">
        <ele>25.6</ele>
        <time>2012-03-19T07:05:55Z</time>
      </trkpt>
      <trkpt lat="59.9923482874" lon="23.4071932734">
        <ele>25.6</ele>
        <time>2012-03-19T07:05:58Z</time>
      </trkpt>
      <trkpt lat="59.9922644684" lon="23.4071857297">
        <ele>25.6</ele>
        <time>2012-03-19T07:06:00Z</time>
      </trkpt>
      <trkpt lat="59.9921788054" lon="23.4072008171">
        <ele>25.6</ele>
        <time>2012-03-19T07:06:02Z</time>
      </trkpt>
      <trkpt lat="59.9921482115" lon="23.4071562254">
        <ele>25.4</ele>
        <time>2012-03-19T07:06:05Z</time>
      </trkpt>
      <trkpt lat="59.9922691623" lon="23.40704944">
        <ele>25</ele>
        <time>2012-03-19T07:06:08Z</time>
      </trkpt>
      <trkpt lat="59.9923795519" lon="23.4070039263">
        <ele>24.4</ele>
        <time>2012-03-19T07:06:12Z</time>
      </trkpt>
      <trkpt lat="59.9923026061" lon="23.4072594066">
        <ele>23.8</ele>
        <time>2012-03-19T07:06:16Z</time>
      </trkpt>
      <trkpt lat="59.9922736047" lon="23.4073174931">
        <ele>23.4</ele>
        <time>2012-03-19T07:06:17Z</time>
      </trkpt>
      <trkpt lat="59.9922522309" lon="23.4073809441">
        <ele>23.2</ele>
        <time>2012-03-19T07:06:18Z</time>
      </trkpt>
      <trkpt lat="59.9922787177" lon="23.4074669424">
        <ele>22.8</ele>
        <time>2012-03-19T07:06:20Z</time>
      </trkpt>
      <trkpt lat="59.9923657218" lon="23.4074754081">
        <ele>22.6</ele>
        <time>2012-03-19T07:06:22Z</time>
      </trkpt>
      <trkpt lat="59.9925055319" lon="23.4074852988">
        <ele>22.2</ele>
        <time>2012-03-19T07:06:25Z</time>
      </trkpt>
      <trkpt lat="59.9925519676" lon="23.4075424633">
        <ele>22</ele>
        <time>2012-03-19T07:06:28Z</time>
      </trkpt>
      <trkpt lat="59.9924788774" lon="23.407600969">
        <ele>21.6</ele>
        <time>2012-03-19T07:06:30Z</time>
      </trkpt>
      <trkpt lat="59.9923027737" lon="23.4077527652">
        <ele>20</ele>
        <time>2012-03-19T07:06:42Z</time>
      </trkpt>
      <trkpt lat="59.9923074676" lon="23.4077919925">
        <ele>15.6</ele>
        <time>2012-03-19T07:07:23Z</time>
      </trkpt>
      <trkpt lat="59.9923696613" lon="23.4076033159">
        <ele>15.2</ele>
        <time>2012-03-19T07:07:37Z</time>
      </trkpt>
      <trkpt lat="59.9924313521" lon="23.4074357617">
        <ele>15.2</ele>
        <time>2012-03-19T07:07:39Z</time>
      </trkpt>
      <trkpt lat="59.9923910351" lon="23.4072792717">
        <ele>15.2</ele>
        <time>2012-03-19T07:07:43Z</time>
      </trkpt>
      <trkpt lat="59.9921905401" lon="23.4072604962">
        <ele>15.2</ele>
        <time>2012-03-19T07:07:48Z</time>
      </trkpt>
      <trkpt lat="59.992220212" lon="23.4072182514">
        <ele>15</ele>
        <time>2012-03-19T07:07:49Z</time>
      </trkpt>
      <trkpt lat="59.9923912028" lon="23.407063773">
        <ele>15</ele>
        <time>2012-03-19T07:07:53Z</time>
      </trkpt>
      <trkpt lat="59.9924300948" lon="23.4070363642">
        <ele>15</ele>
        <time>2012-03-19T07:07:54Z</time>
      </trkpt>
      <trkpt lat="59.9924501275" lon="23.4070902598">
        <ele>15</ele>
        <time>2012-03-19T07:07:56Z</time>
      </trkpt>
      <trkpt lat="59.9923668953" lon="23.4072798584">
        <ele>15</ele>
        <time>2012-03-19T07:07:59Z</time>
      </trkpt>
      <trkpt lat="59.9923294282" lon="23.4073627554">
        <ele>15</ele>
        <time>2012-03-19T07:08:00Z</time>
      </trkpt>
      <trkpt lat="59.9923078029" lon="23.4074350912">
        <ele>15</ele>
        <time>2012-03-19T07:08:01Z</time>
      </trkpt>
      <trkpt lat="59.9923689069" lon="23.4075195807">
        <ele>15</ele>
        <time>2012-03-19T07:08:04Z</time>
      </trkpt>
      <trkpt lat="59.9924159294" lon="23.4075191617">
        <ele>15</ele>
        <time>2012-03-19T07:08:05Z</time>
      </trkpt>
      <trkpt lat="59.9925134947" lon="23.4075071755">
        <ele>15</ele>
        <time>2012-03-19T07:08:07Z</time>
      </trkpt>
      <trkpt lat="59.9925718327" lon="23.4075603168">
        <ele>15</ele>
        <time>2012-03-19T07:08:10Z</time>
      </trkpt>
      <trkpt lat="59.9924650473" lon="23.4076474047">
        <ele>15</ele>
        <time>2012-03-19T07:08:13Z</time>
      </trkpt>
      <trkpt lat="59.9924208747" lon="23.4076828602">
        <ele>15</ele>
        <time>2012-03-19T07:08:14Z</time>
      </trkpt>
      <trkpt lat="59.9923269136" lon="23.4077659248">
        <ele>15</ele>
        <time>2012-03-19T07:08:17Z</time>
      </trkpt>
      <trkpt lat="59.9923177773" lon="23.4077761507">
        <ele>15</ele>
        <time>2012-03-19T07:08:23Z</time>
      </trkpt>
      <trkpt lat="59.9923192861" lon="23.4077502506">
        <ele>15</ele>
        <time>2012-03-19T07:08:33Z</time>
      </trkpt>
      <trkpt lat="59.9923166877" lon="23.4077379292">
        <ele>15</ele>
        <time>2012-03-19T07:09:00Z</time>
      </trkpt>
      <trkpt lat="59.992319789" lon="23.407670874">
        <ele>15</ele>
        <time>2012-03-19T07:09:11Z</time>
      </trkpt>
      <trkpt lat="59.9924538156" lon="23.4073092789">
        <ele>15</ele>
        <time>2012-03-19T07:09:16Z</time>
      </trkpt>
      <trkpt lat="59.992466556" lon="23.407249013">
        <ele>15</ele>
        <time>2012-03-19T07:09:17Z</time>
      </trkpt>
      <trkpt lat="59.9924126604" lon="23.4071870708">
        <ele>15</ele>
        <time>2012-03-19T07:09:19Z</time>
      </trkpt>
      <trkpt lat="59.9923710024" lon="23.4071838857">
        <ele>15</ele>
        <time>2012-03-19T07:09:20Z</time>
      </trkpt>
      <trkpt lat="59.9922240677" lon="23.4071878251">
        <ele>15</ele>
        <time>2012-03-19T07:09:23Z</time>
      </trkpt>
      <trkpt lat="59.9922409991" lon="23.4071104602">
        <ele>15</ele>
        <time>2012-03-19T07:09:26Z</time>
      </trkpt>
      <trkpt lat="59.9923785461" lon="23.4069885874">
        <ele>15</ele>
        <time>2012-03-19T07:09:29Z</time>
      </trkpt>
      <trkpt lat="59.9924486188" lon="23.4069961311">
        <ele>15</ele>
        <time>2012-03-19T07:09:32Z</time>
      </trkpt>
      <trkpt lat="59.9923161848" lon="23.4074181598">
        <ele>15</ele>
        <time>2012-03-19T07:09:39Z</time>
      </trkpt>
      <trkpt lat="59.9923793005" lon="23.4074498433">
        <ele>15</ele>
        <time>2012-03-19T07:09:41Z</time>
      </trkpt>
      <trkpt lat="59.9924271611" lon="23.4074494242">
        <ele>15</ele>
        <time>2012-03-19T07:09:42Z</time>
      </trkpt>
      <trkpt lat="59.9925291688" lon="23.4074464906">
        <ele>15</ele>
        <time>2012-03-19T07:09:44Z</time>
      </trkpt>
      <trkpt lat="59.9925675579" lon="23.4075218439">
        <ele>15</ele>
        <time>2012-03-19T07:09:47Z</time>
      </trkpt>
      <trkpt lat="59.9925310967" lon="23.4075508452">
        <ele>15</ele>
        <time>2012-03-19T07:09:48Z</time>
      </trkpt>
      <trkpt lat="59.9923987465" lon="23.4076581336">
        <ele>15</ele>
        <time>2012-03-19T07:09:51Z</time>
      </trkpt>
      <trkpt lat="59.9923186993" lon="23.4077571238">
        <ele>15</ele>
        <time>2012-03-19T07:09:55Z</time>
      </trkpt>
      <trkpt lat="59.9923182802" lon="23.407736672">
        <ele>15</ele>
        <time>2012-03-19T07:09:59Z</time>
      </trkpt>
      <trkpt lat="59.9923257401" lon="23.4077058266">
        <ele>15</ele>
        <time>2012-03-19T07:10:06Z</time>
      </trkpt>
      <trkpt lat="59.9923254887" lon="23.4076914935">
        <ele>15</ele>
        <time>2012-03-19T07:10:15Z</time>
      </trkpt>
      <trkpt lat="59.9923281709" lon="23.4076643362">
        <ele>15</ele>
        <time>2012-03-19T07:10:20Z</time>
      </trkpt>
      <trkpt lat="59.9923661409" lon="23.4075862169">
        <ele>15</ele>
        <time>2012-03-19T07:10:56Z</time>
      </trkpt>
      <trkpt lat="59.9924644606" lon="23.4073511046">
        <ele>15</ele>
        <time>2012-03-19T07:10:59Z</time>
      </trkpt>
      <trkpt lat="59.9924260715" lon="23.4071220272">
        <ele>15</ele>
        <time>2012-03-19T07:11:03Z</time>
      </trkpt>
      <trkpt lat="59.9923784623" lon="23.4071314988">
        <ele>15</ele>
        <time>2012-03-19T07:11:04Z</time>
      </trkpt>
      <trkpt lat="59.9922791368" lon="23.4071700555">
        <ele>15</ele>
        <time>2012-03-19T07:11:06Z</time>
      </trkpt>
      <trkpt lat="59.9922347965" lon="23.4071295709">
        <ele>15</ele>
        <time>2012-03-19T07:11:09Z</time>
      </trkpt>
      <trkpt lat="59.9922694976" lon="23.4070907627">
        <ele>15</ele>
        <time>2012-03-19T07:11:10Z</time>
      </trkpt>
      <trkpt lat="59.9923851678" lon="23.4069723265">
        <ele>15</ele>
        <time>2012-03-19T07:11:13Z</time>
      </trkpt>
      <trkpt lat="59.9924344534" lon="23.4070558102">
        <ele>15</ele>
        <time>2012-03-19T07:11:17Z</time>
      </trkpt>
      <trkpt lat="59.9924056196" lon="23.4071277269">
        <ele>15</ele>
        <time>2012-03-19T07:11:18Z</time>
      </trkpt>
      <trkpt lat="59.9923189508" lon="23.4073378612">
        <ele>15</ele>
        <time>2012-03-19T07:11:21Z</time>
      </trkpt>
      <trkpt lat="59.992374439" lon="23.4074841253">
        <ele>15</ele>
        <time>2012-03-19T07:11:24Z</time>
      </trkpt>
      <trkpt lat="59.9924581741" lon="23.407475492">
        <ele>15</ele>
        <time>2012-03-19T07:11:26Z</time>
      </trkpt>
      <trkpt lat="59.9925435019" lon="23.4074419644">
        <ele>15</ele>
        <time>2012-03-19T07:11:28Z</time>
      </trkpt>
      <trkpt lat="59.9925117345" lon="23.4075604844">
        <ele>15</ele>
        <time>2012-03-19T07:11:32Z</time>
      </trkpt>
      <trkpt lat="59.9924683162" lon="23.4076044056">
        <ele>15</ele>
        <time>2012-03-19T07:11:33Z</time>
      </trkpt>
      <trkpt lat="59.9923194537" lon="23.4077455568">
        <ele>15</ele>
        <time>2012-03-19T07:11:37Z</time>
      </trkpt>
      <trkpt lat="59.9923135026" lon="23.4077699481">
        <ele>15</ele>
        <time>2012-03-19T07:11:42Z</time>
      </trkpt>
      <trkpt lat="59.9923114909" lon="23.4077496639">
        <ele>14.2</ele>
        <time>2012-03-19T07:11:50Z</time>
      </trkpt>
      <trkpt lat="59.9923038634" lon="23.4076710417">
        <ele>13</ele>
        <time>2012-03-19T07:12:27Z</time>
      </trkpt>
      <trkpt lat="59.992338313" lon="23.4076202474">
        <ele>13</ele>
        <time>2012-03-19T07:12:45Z</time>
      </trkpt>
      <trkpt lat="59.9924203718" lon="23.4074121248">
        <ele>13</ele>
        <time>2012-03-19T07:12:48Z</time>
      </trkpt>
      <trkpt lat="59.9924495408" lon="23.4073373582">
        <ele>13</ele>
        <time>2012-03-19T07:12:49Z</time>
      </trkpt>
      <trkpt lat="59.9924458528" lon="23.4071621765">
        <ele>13</ele>
        <time>2012-03-19T07:12:52Z</time>
      </trkpt>
      <trkpt lat="59.992205376" lon="23.4071819578">
        <ele>13</ele>
        <time>2012-03-19T07:12:58Z</time>
      </trkpt>
      <trkpt lat="59.9922257441" lon="23.4071484302">
        <ele>13</ele>
        <time>2012-03-19T07:12:59Z</time>
      </trkpt>
      <trkpt lat="59.9923068808" lon="23.407079531">
        <ele>13</ele>
        <time>2012-03-19T07:13:01Z</time>
      </trkpt>
      <trkpt lat="59.992454067" lon="23.4069732485">
        <ele>13</ele>
        <time>2012-03-19T07:13:05Z</time>
      </trkpt>
      <trkpt lat="59.992424898" lon="23.4070861527">
        <ele>13</ele>
        <time>2012-03-19T07:13:07Z</time>
      </trkpt>
      <trkpt lat="59.9923986627" lon="23.4071455804">
        <ele>13</ele>
        <time>2012-03-19T07:13:08Z</time>
      </trkpt>
      <trkpt lat="59.9923145084" lon="23.4073946904">
        <ele>13</ele>
        <time>2012-03-19T07:13:12Z</time>
      </trkpt>
      <trkpt lat="59.9924456013" lon="23.4074621647">
        <ele>13</ele>
        <time>2012-03-19T07:13:16Z</time>
      </trkpt>
      <trkpt lat="59.9924954736" lon="23.40745789">
        <ele>13</ele>
        <time>2012-03-19T07:13:17Z</time>
      </trkpt>
      <trkpt lat="59.9925417417" lon="23.407456465">
        <ele>13</ele>
        <time>2012-03-19T07:13:18Z</time>
      </trkpt>
      <trkpt lat="59.9925290012" lon="23.4075634181">
        <ele>13.2</ele>
        <time>2012-03-19T07:13:22Z</time>
      </trkpt>
      <trkpt lat="59.9924914503" lon="23.4075968619">
        <ele>13.4</ele>
        <time>2012-03-19T07:13:23Z</time>
      </trkpt>
      <trkpt lat="59.9923986627" lon="23.4076723828">
        <ele>13.8</ele>
        <time>2012-03-19T07:13:25Z</time>
      </trkpt>
      <trkpt lat="59.9923135864" lon="23.4077573753">
        <ele>14</ele>
        <time>2012-03-19T07:13:27Z</time>
      </trkpt>
      <trkpt lat="59.9923016841" lon="23.4077593869">
        <ele>14.4</ele>
        <time>2012-03-19T07:13:31Z</time>
      </trkpt>
      <trkpt lat="59.992310066" lon="23.4077592193">
        <ele>14.4</ele>
        <time>2012-03-19T07:13:32Z</time>
      </trkpt>
      <trkpt lat="59.9923295958" lon="23.4077739714">
        <ele>14.8</ele>
        <time>2012-03-19T07:13:42Z</time>
      </trkpt>
      <trkpt lat="59.9923505505" lon="23.4077511726">
        <ele>15</ele>
        <time>2012-03-19T07:13:47Z</time>
      </trkpt>
      <trkpt lat="59.992392041" lon="23.4076612349">
        <ele>15</ele>
        <time>2012-03-19T07:13:51Z</time>
      </trkpt>
      <trkpt lat="59.992452223" lon="23.4075403679">
        <ele>15</ele>
        <time>2012-03-19T07:13:55Z</time>
      </trkpt>
      <trkpt lat="59.9924590123" lon="23.4075235202">
        <ele>15</ele>
        <time>2012-03-19T07:13:57Z</time>
      </trkpt>
      <trkpt lat="59.992498994" lon="23.4073584806">
        <ele>15</ele>
        <time>2012-03-19T07:14:01Z</time>
      </trkpt>
      <trkpt lat="59.9924319388" lon="23.4072766733">
        <ele>15</ele>
        <time>2012-03-19T07:14:06Z</time>
      </trkpt>
      <trkpt lat="59.9923072999" lon="23.4072531201">
        <ele>15</ele>
        <time>2012-03-19T07:14:12Z</time>
      </trkpt>
      <trkpt lat="59.9922330363" lon="23.4072362725">
        <ele>15</ele>
        <time>2012-03-19T07:14:16Z</time>
      </trkpt>
      <trkpt lat="59.9922847526" lon="23.4071681277">
        <ele>15</ele>
        <time>2012-03-19T07:14:20Z</time>
      </trkpt>
      <trkpt lat="59.9923844134" lon="23.4070801177">
        <ele>15</ele>
        <time>2012-03-19T07:14:25Z</time>
      </trkpt>
      <trkpt lat="59.9924312682" lon="23.407040639">
        <ele>15</ele>
        <time>2012-03-19T07:14:28Z</time>
      </trkpt>
      <trkpt lat="59.9924695735" lon="23.4070672096">
        <ele>15</ele>
        <time>2012-03-19T07:14:32Z</time>
      </trkpt>
      <trkpt lat="59.9924481997" lon="23.4070952052">
        <ele>15</ele>
        <time>2012-03-19T07:14:33Z</time>
      </trkpt>
      <trkpt lat="59.9923547415" lon="23.4073063452">
        <ele>16</ele>
        <time>2012-03-19T07:14:41Z</time>
      </trkpt>
      <trkpt lat="59.9923478683" lon="23.4073308204">
        <ele>16.2</ele>
        <time>2012-03-19T07:14:42Z</time>
      </trkpt>
      <trkpt lat="59.9923345411" lon="23.407466188">
        <ele>16.6</ele>
        <time>2012-03-19T07:14:49Z</time>
      </trkpt>
      <trkpt lat="59.9923912866" lon="23.407489825">
        <ele>16.8</ele>
        <time>2012-03-19T07:14:54Z</time>
      </trkpt>
      <trkpt lat="59.9924144206" lon="23.4074952732">
        <ele>17</ele>
        <time>2012-03-19T07:14:55Z</time>
      </trkpt>
      <trkpt lat="59.9925438372" lon="23.4074749052">
        <ele>17</ele>
        <time>2012-03-19T07:15:01Z</time>
      </trkpt>
      <trkpt lat="59.9925647081" lon="23.407460656">
        <ele>17</ele>
        <time>2012-03-19T07:15:02Z</time>
      </trkpt>
      <trkpt lat="59.9925692343" lon="23.4075399488">
        <ele>17</ele>
        <time>2012-03-19T07:15:06Z</time>
      </trkpt>
      <trkpt lat="59.9925474414" lon="23.4075545333">
        <ele>17</ele>
        <time>2012-03-19T07:15:07Z</time>
      </trkpt>
      <trkpt lat="59.9924264067" lon="23.4076624083">
        <ele>17.2</ele>
        <time>2012-03-19T07:15:13Z</time>
      </trkpt>
      <trkpt lat="59.9923562502" lon="23.4077263622">
        <ele>17.2</ele>
        <time>2012-03-19T07:15:20Z</time>
      </trkpt>
      <trkpt lat="59.9923523107" lon="23.407710269">
        <ele>17.2</ele>
        <time>2012-03-19T07:15:26Z</time>
      </trkpt>
      <trkpt lat="59.9923509696" lon="23.4077077544">
        <ele>17.2</ele>
        <time>2012-03-19T07:15:31Z</time>
      </trkpt>
      <trkpt lat="59.9923466949" lon="23.4076660125">
        <ele>17.2</ele>
        <time>2012-03-19T07:15:37Z</time>
      </trkpt>
      <trkpt lat="59.9923300149" lon="23.407636173">
        <ele>17.2</ele>
        <time>2012-03-19T07:16:06Z</time>
      </trkpt>
      <trkpt lat="59.9922876863" lon="23.4076685271">
        <ele>17.2</ele>
        <time>2012-03-19T07:17:45Z</time>
      </trkpt>
      <trkpt lat="59.9922725989" lon="23.4077023062">
        <ele>17.2</ele>
        <time>2012-03-19T07:17:52Z</time>
      </trkpt>
      <trkpt lat="59.9923362175" lon="23.4076345804">
        <ele>17.2</ele>
        <time>2012-03-19T07:18:23Z</time>
      </trkpt>
      <trkpt lat="59.9924404045" lon="23.4073400405">
        <ele>17.2</ele>
        <time>2012-03-19T07:18:27Z</time>
      </trkpt>
      <trkpt lat="59.9924321064" lon="23.4072881565">
        <ele>17.2</ele>
        <time>2012-03-19T07:18:28Z</time>
      </trkpt>
      <trkpt lat="59.9923057912" lon="23.4072475881">
        <ele>17.2</ele>
        <time>2012-03-19T07:18:31Z</time>
      </trkpt>
      <trkpt lat="59.9922579306" lon="23.4072531201">
        <ele>17.2</ele>
        <time>2012-03-19T07:18:32Z</time>
      </trkpt>
      <trkpt lat="59.9922122492" lon="23.4072609991">
        <ele>17.2</ele>
        <time>2012-03-19T07:18:33Z</time>
      </trkpt>
      <trkpt lat="59.9921489659" lon="23.4072387871">
        <ele>17.2</ele>
        <time>2012-03-19T07:18:35Z</time>
      </trkpt>
      <trkpt lat="59.992335966" lon="23.4070652818">
        <ele>17.2</ele>
        <time>2012-03-19T07:18:39Z</time>
      </trkpt>
      <trkpt lat="59.9924273288" lon="23.4070873262">
        <ele>17.2</ele>
        <time>2012-03-19T07:18:43Z</time>
      </trkpt>
      <trkpt lat="59.9924195336" lon="23.4071265535">
        <ele>17.2</ele>
        <time>2012-03-19T07:18:44Z</time>
      </trkpt>
      <trkpt lat="59.9923772888" lon="23.4072146472">
        <ele>17.2</ele>
        <time>2012-03-19T07:18:45Z</time>
      </trkpt>
      <trkpt lat="59.9922939727" lon="23.4074116219">
        <ele>17.2</ele>
        <time>2012-03-19T07:18:48Z</time>
      </trkpt>
      <trkpt lat="59.9923616147" lon="23.4074772522">
        <ele>17.2</ele>
        <time>2012-03-19T07:18:51Z</time>
      </trkpt>
      <trkpt lat="59.9924056196" lon="23.4074827004">
        <ele>17.2</ele>
        <time>2012-03-19T07:18:52Z</time>
      </trkpt>
      <trkpt lat="59.9924968985" lon="23.4074909985">
        <ele>17.2</ele>
        <time>2012-03-19T07:18:54Z</time>
      </trkpt>
      <trkpt lat="59.9925667197" lon="23.4075417928">
        <ele>17.2</ele>
        <time>2012-03-19T07:18:57Z</time>
      </trkpt>
      <trkpt lat="59.9925491178" lon="23.4075675252">
        <ele>17.2</ele>
        <time>2012-03-19T07:18:58Z</time>
      </trkpt>
      <trkpt lat="59.9923595192" lon="23.4077340736">
        <ele>17.2</ele>
        <time>2012-03-19T07:19:03Z</time>
      </trkpt>
      <trkpt lat="59.9923378939" lon="23.4077469817">
        <ele>17.2</ele>
        <time>2012-03-19T07:19:04Z</time>
      </trkpt>
      <trkpt lat="59.9923306016" lon="23.4077159687">
        <ele>17.2</ele>
        <time>2012-03-19T07:19:08Z</time>
      </trkpt>
      <trkpt lat="59.9923767021" lon="23.4077438804">
        <ele>17.2</ele>
        <time>2012-03-19T07:20:29Z</time>
      </trkpt>
      <trkpt lat="59.9923738522" lon="23.407756118">
        <ele>17.2</ele>
        <time>2012-03-19T07:20:39Z</time>
      </trkpt>
      <trkpt lat="59.9924904445" lon="23.4074100293">
        <ele>17.2</ele>
        <time>2012-03-19T07:20:45Z</time>
      </trkpt>
      <trkpt lat="59.992426742" lon="23.4071694688">
        <ele>17.2</ele>
        <time>2012-03-19T07:20:49Z</time>
      </trkpt>
      <trkpt lat="59.9923268298" lon="23.4071725701">
        <ele>17.2</ele>
        <time>2012-03-19T07:20:51Z</time>
      </trkpt>
      <trkpt lat="59.9922423402" lon="23.4071807844">
        <ele>17.2</ele>
        <time>2012-03-19T07:20:53Z</time>
      </trkpt>
      <trkpt lat="59.99227394" lon="23.4071155732">
        <ele>17.2</ele>
        <time>2012-03-19T07:20:55Z</time>
      </trkpt>
      <trkpt lat="59.992438309" lon="23.4069766013">
        <ele>17.2</ele>
        <time>2012-03-19T07:20:59Z</time>
      </trkpt>
      <trkpt lat="59.9924556596" lon="23.4071161599">
        <ele>17.2</ele>
        <time>2012-03-19T07:21:03Z</time>
      </trkpt>
      <trkpt lat="59.9924200365" lon="23.4071917646">
        <ele>17.2</ele>
        <time>2012-03-19T07:21:04Z</time>
      </trkpt>
      <trkpt lat="59.9923466949" lon="23.4073349275">
        <ele>17.2</ele>
        <time>2012-03-19T07:21:06Z</time>
      </trkpt>
      <trkpt lat="59.9923521431" lon="23.4075013082">
        <ele>17.2</ele>
        <time>2012-03-19T07:21:09Z</time>
      </trkpt>
      <trkpt lat="59.9924435896" lon="23.4074894897">
        <ele>17.2</ele>
        <time>2012-03-19T07:21:11Z</time>
      </trkpt>
      <trkpt lat="59.9925393948" lon="23.4074669424">
        <ele>17.2</ele>
        <time>2012-03-19T07:21:13Z</time>
      </trkpt>
      <trkpt lat="59.9925843217" lon="23.4075460676">
        <ele>17.2</ele>
        <time>2012-03-19T07:21:16Z</time>
      </trkpt>
      <trkpt lat="59.9925470223" lon="23.4075837861">
        <ele>17.2</ele>
        <time>2012-03-19T07:21:17Z</time>
      </trkpt>
      <trkpt lat="59.9924088048" lon="23.4077085088">
        <ele>17.2</ele>
        <time>2012-03-19T07:21:20Z</time>
      </trkpt>
      <trkpt lat="59.9923254887" lon="23.4077615662">
        <ele>17.2</ele>
        <time>2012-03-19T07:21:24Z</time>
      </trkpt>
      <trkpt lat="59.992346192" lon="23.4077530167">
        <ele>17.2</ele>
        <time>2012-03-19T07:21:27Z</time>
      </trkpt>
      <trkpt lat="59.9923135026" lon="23.4077448024">
        <ele>17.2</ele>
        <time>2012-03-19T07:22:21Z</time>
      </trkpt>
      <trkpt lat="59.9924071284" lon="23.4075701236">
        <ele>17.2</ele>
        <time>2012-03-19T07:22:25Z</time>
      </trkpt>
      <trkpt lat="59.9924378061" lon="23.4074911661">
        <ele>17.2</ele>
        <time>2012-03-19T07:22:26Z</time>
      </trkpt>
      <trkpt lat="59.9924851639" lon="23.4073283896">
        <ele>17.2</ele>
        <time>2012-03-19T07:22:28Z</time>
      </trkpt>
      <trkpt lat="59.9923462758" lon="23.4071785212">
        <ele>17.2</ele>
        <time>2012-03-19T07:22:32Z</time>
      </trkpt>
      <trkpt lat="59.992291542" lon="23.4071975482">
        <ele>17.2</ele>
        <time>2012-03-19T07:22:33Z</time>
      </trkpt>
      <trkpt lat="59.9922499677" lon="23.4072117974">
        <ele>17.2</ele>
        <time>2012-03-19T07:22:34Z</time>
      </trkpt>
      <trkpt lat="59.9924366327" lon="23.4069500306">
        <ele>17.2</ele>
        <time>2012-03-19T07:22:41Z</time>
      </trkpt>
      <trkpt lat="59.9924623651" lon="23.4069579096">
        <ele>17.2</ele>
        <time>2012-03-19T07:22:42Z</time>
      </trkpt>
      <trkpt lat="59.9923280871" lon="23.4073417168">
        <ele>17.2</ele>
        <time>2012-03-19T07:22:48Z</time>
      </trkpt>
      <trkpt lat="59.9923593515" lon="23.4074761625">
        <ele>17.2</ele>
        <time>2012-03-19T07:22:51Z</time>
      </trkpt>
      <trkpt lat="59.9924019316" lon="23.4074812755">
        <ele>17.2</ele>
        <time>2012-03-19T07:22:52Z</time>
      </trkpt>
      <trkpt lat="59.992547609" lon="23.4074664395">
        <ele>17.2</ele>
        <time>2012-03-19T07:22:55Z</time>
      </trkpt>
      <trkpt lat="59.9925814719" lon="23.4075419604">
        <ele>17.2</ele>
        <time>2012-03-19T07:22:58Z</time>
      </trkpt>
      <trkpt lat="59.9925504589" lon="23.4075712971">
        <ele>17.2</ele>
        <time>2012-03-19T07:22:59Z</time>
      </trkpt>
      <trkpt lat="59.9923465272" lon="23.40777372">
        <ele>17.2</ele>
        <time>2012-03-19T07:23:04Z</time>
      </trkpt>
      <trkpt lat="59.9923310207" lon="23.4077940042">
        <ele>17.2</ele>
        <time>2012-03-19T07:23:05Z</time>
      </trkpt>
      <trkpt lat="59.9923163524" lon="23.4077991171">
        <ele>17.2</ele>
        <time>2012-03-19T07:23:07Z</time>
      </trkpt>
      <trkpt lat="59.9923426716" lon="23.4077619015">
        <ele>17.2</ele>
        <time>2012-03-19T07:23:12Z</time>
      </trkpt>
      <trkpt lat="59.9923543224" lon="23.40776165">
        <ele>17.2</ele>
        <time>2012-03-19T07:23:18Z</time>
      </trkpt>
      <trkpt lat="59.9923487903" lon="23.4077760669">
        <ele>16.2</ele>
        <time>2012-03-19T07:23:29Z</time>
      </trkpt>
      <trkpt lat="59.9923200404" lon="23.4078142884">
        <ele>16.6</ele>
        <time>2012-03-19T07:24:25Z</time>
      </trkpt>
      <trkpt lat="59.9923926277" lon="23.4075464028">
        <ele>16.8</ele>
        <time>2012-03-19T07:24:29Z</time>
      </trkpt>
      <trkpt lat="59.9924265744" lon="23.4074593149">
        <ele>16.8</ele>
        <time>2012-03-19T07:24:30Z</time>
      </trkpt>
      <trkpt lat="59.9924311844" lon="23.4072354343">
        <ele>17</ele>
        <time>2012-03-19T07:24:33Z</time>
      </trkpt>
      <trkpt lat="59.9923886882" lon="23.4072299023">
        <ele>17</ele>
        <time>2012-03-19T07:24:34Z</time>
      </trkpt>
      <trkpt lat="59.9922382331" lon="23.4072618373">
        <ele>17</ele>
        <time>2012-03-19T07:24:37Z</time>
      </trkpt>
      <trkpt lat="59.9922001793" lon="23.4071941116">
        <ele>17.6</ele>
        <time>2012-03-19T07:24:40Z</time>
      </trkpt>
      <trkpt lat="59.9923621176" lon="23.4070392141">
        <ele>18.2</ele>
        <time>2012-03-19T07:24:44Z</time>
      </trkpt>
      <trkpt lat="59.9924048653" lon="23.4070232884">
        <ele>18.2</ele>
        <time>2012-03-19T07:24:45Z</time>
      </trkpt>
      <trkpt lat="59.9924233054" lon="23.4071268049">
        <ele>18.4</ele>
        <time>2012-03-19T07:24:47Z</time>
      </trkpt>
      <trkpt lat="59.9923774564" lon="23.4072579816">
        <ele>18.6</ele>
        <time>2012-03-19T07:24:49Z</time>
      </trkpt>
      <trkpt lat="59.9923129996" lon="23.407382872">
        <ele>18.6</ele>
        <time>2012-03-19T07:24:51Z</time>
      </trkpt>
      <trkpt lat="59.9923193699" lon="23.407556964">
        <ele>18.8</ele>
        <time>2012-03-19T07:24:54Z</time>
      </trkpt>
      <trkpt lat="59.9924144206" lon="23.4075453132">
        <ele>18.8</ele>
        <time>2012-03-19T07:24:56Z</time>
      </trkpt>
      <trkpt lat="59.9925081303" lon="23.4075087681">
        <ele>19</ele>
        <time>2012-03-19T07:24:58Z</time>
      </trkpt>
      <trkpt lat="59.9925649596" lon="23.4075563773">
        <ele>19</ele>
        <time>2012-03-19T07:25:01Z</time>
      </trkpt>
      <trkpt lat="59.9925030173" lon="23.4076209179">
        <ele>19</ele>
        <time>2012-03-19T07:25:03Z</time>
      </trkpt>
      <trkpt lat="59.9924087209" lon="23.4077105204">
        <ele>18.8</ele>
        <time>2012-03-19T07:25:05Z</time>
      </trkpt>
      <trkpt lat="59.9923024384" lon="23.4078152942">
        <ele>18.4</ele>
        <time>2012-03-19T07:25:08Z</time>
      </trkpt>
      <trkpt lat="59.9922878539" lon="23.4078266097">
        <ele>18.2</ele>
        <time>2012-03-19T07:25:09Z</time>
      </trkpt>
      <trkpt lat="59.992297996" lon="23.4077805093">
        <ele>17.8</ele>
        <time>2012-03-19T07:25:13Z</time>
      </trkpt>
      <trkpt lat="59.9923087249" lon="23.407765841">
        <ele>17.8</ele>
        <time>2012-03-19T07:25:14Z</time>
      </trkpt>
      <trkpt lat="59.9923400732" lon="23.4077571238">
        <ele>17.4</ele>
        <time>2012-03-19T07:25:20Z</time>
      </trkpt>
      <trkpt lat="59.992327668" lon="23.4077757316">
        <ele>17.2</ele>
        <time>2012-03-19T07:26:27Z</time>
      </trkpt>
      <trkpt lat="59.9923346249" lon="23.4077867957">
        <ele>17.2</ele>
        <time>2012-03-19T07:26:32Z</time>
      </trkpt>
      <trkpt lat="59.9923561664" lon="23.4077039825">
        <ele>17.2</ele>
        <time>2012-03-19T07:26:49Z</time>
      </trkpt>
      <trkpt lat="59.9924461042" lon="23.4074496757">
        <ele>17.2</ele>
        <time>2012-03-19T07:26:52Z</time>
      </trkpt>
      <trkpt lat="59.9923919571" lon="23.4072343447">
        <ele>17.2</ele>
        <time>2012-03-19T07:26:56Z</time>
      </trkpt>
      <trkpt lat="59.9922963197" lon="23.4072294832">
        <ele>17.2</ele>
        <time>2012-03-19T07:26:58Z</time>
      </trkpt>
      <trkpt lat="59.9922051246" lon="23.4072250408">
        <ele>17.2</ele>
        <time>2012-03-19T07:27:00Z</time>
      </trkpt>
      <trkpt lat="59.9922419211" lon="23.4071412218">
        <ele>17.2</ele>
        <time>2012-03-19T07:27:02Z</time>
      </trkpt>
      <trkpt lat="59.992284585" lon="23.4071016592">
        <ele>17.2</ele>
        <time>2012-03-19T07:27:03Z</time>
      </trkpt>
      <trkpt lat="59.9924249818" lon="23.4069791158">
        <ele>17.2</ele>
        <time>2012-03-19T07:27:06Z</time>
      </trkpt>
      <trkpt lat="59.9924362136" lon="23.4071021621">
        <ele>17.2</ele>
        <time>2012-03-19T07:27:09Z</time>
      </trkpt>
      <trkpt lat="59.9923238961" lon="23.4073704667">
        <ele>17.2</ele>
        <time>2012-03-19T07:27:13Z</time>
      </trkpt>
      <trkpt lat="59.9923541548" lon="23.4074794314">
        <ele>17.2</ele>
        <time>2012-03-19T07:27:15Z</time>
      </trkpt>
      <trkpt lat="59.992443422" lon="23.4074811916">
        <ele>17.2</ele>
        <time>2012-03-19T07:27:17Z</time>
      </trkpt>
      <trkpt lat="59.9925347009" lon="23.4074626676">
        <ele>17.2</ele>
        <time>2012-03-19T07:27:19Z</time>
      </trkpt>
      <trkpt lat="59.9926095513" lon="23.4074992966">
        <ele>17.2</ele>
        <time>2012-03-19T07:27:22Z</time>
      </trkpt>
      <trkpt lat="59.9925813043" lon="23.4075306449">
        <ele>17.2</ele>
        <time>2012-03-19T07:27:23Z</time>
      </trkpt>
      <trkpt lat="59.992378127" lon="23.4077256079">
        <ele>17.2</ele>
        <time>2012-03-19T07:27:28Z</time>
      </trkpt>
      <trkpt lat="59.9923427554" lon="23.407767685">
        <ele>17.2</ele>
        <time>2012-03-19T07:27:29Z</time>
      </trkpt>
      <trkpt lat="59.9923083896" lon="23.4077752287">
        <ele>17.4</ele>
        <time>2012-03-19T07:27:31Z</time>
      </trkpt>
      <trkpt lat="59.9923075514" lon="23.4077596384">
        <ele>17.6</ele>
        <time>2012-03-19T07:27:33Z</time>
      </trkpt>
      <trkpt lat="59.9923349602" lon="23.40771907">
        <ele>18.6</ele>
        <time>2012-03-19T07:27:44Z</time>
      </trkpt>
      <trkpt lat="59.9923638778" lon="23.4077062457">
        <ele>18.8</ele>
        <time>2012-03-19T07:27:50Z</time>
      </trkpt>
      <trkpt lat="59.9923513887" lon="23.4077522623">
        <ele>19.2</ele>
        <time>2012-03-19T07:30:13Z</time>
      </trkpt>
      <trkpt lat="59.9923637101" lon="23.4077531843">
        <ele>19.2</ele>
        <time>2012-03-19T07:30:14Z</time>
      </trkpt>
      <trkpt lat="59.9923925439" lon="23.4077323972">
        <ele>19.2</ele>
        <time>2012-03-19T07:30:18Z</time>
      </trkpt>
      <trkpt lat="59.9924305977" lon="23.4076188224">
        <ele>19.2</ele>
        <time>2012-03-19T07:30:24Z</time>
      </trkpt>
      <trkpt lat="59.9924390634" lon="23.4075890667">
        <ele>19.2</ele>
        <time>2012-03-19T07:30:25Z</time>
      </trkpt>
      <trkpt lat="59.9925016762" lon="23.4074004739">
        <ele>19.2</ele>
        <time>2012-03-19T07:30:31Z</time>
      </trkpt>
      <trkpt lat="59.9925178533" lon="23.4073566366">
        <ele>19.2</ele>
        <time>2012-03-19T07:30:33Z</time>
      </trkpt>
      <trkpt lat="59.9924970662" lon="23.4072837141">
        <ele>19.2</ele>
        <time>2012-03-19T07:30:37Z</time>
      </trkpt>
      <trkpt lat="59.9924632871" lon="23.407279104">
        <ele>19.2</ele>
        <time>2012-03-19T07:30:39Z</time>
      </trkpt>
      <trkpt lat="59.9922762031" lon="23.4072293994">
        <ele>20.2</ele>
        <time>2012-03-19T07:30:49Z</time>
      </trkpt>
      <trkpt lat="59.9922367243" lon="23.4072361049">
        <ele>20.4</ele>
        <time>2012-03-19T07:30:52Z</time>
      </trkpt>
      <trkpt lat="59.9922700843" lon="23.4071654455">
        <ele>20.8</ele>
        <time>2012-03-19T07:30:56Z</time>
      </trkpt>
      <trkpt lat="59.9922904523" lon="23.407149939">
        <ele>20.8</ele>
        <time>2012-03-19T07:30:57Z</time>
      </trkpt>
      <trkpt lat="59.9923892749" lon="23.4070734122">
        <ele>21</ele>
        <time>2012-03-19T07:31:03Z</time>
      </trkpt>
      <trkpt lat="59.9924499599" lon="23.4070012441">
        <ele>21</ele>
        <time>2012-03-19T07:31:08Z</time>
      </trkpt>
      <trkpt lat="59.9924409912" lon="23.4070635216">
        <ele>21.2</ele>
        <time>2012-03-19T07:31:13Z</time>
      </trkpt>
      <trkpt lat="59.9923759477" lon="23.4071879928">
        <ele>21.2</ele>
        <time>2012-03-19T07:31:19Z</time>
      </trkpt>
      <trkpt lat="59.9923089763" lon="23.4073440638">
        <ele>21.2</ele>
        <time>2012-03-19T07:31:25Z</time>
      </trkpt>
      <trkpt lat="59.9923337029" lon="23.4074401203">
        <ele>21.2</ele>
        <time>2012-03-19T07:31:29Z</time>
      </trkpt>
      <trkpt lat="59.9923813959" lon="23.4074501786">
        <ele>21.2</ele>
        <time>2012-03-19T07:31:31Z</time>
      </trkpt>
      <trkpt lat="59.9925434181" lon="23.4074558783">
        <ele>21.2</ele>
        <time>2012-03-19T07:31:39Z</time>
      </trkpt>
      <trkpt lat="59.9925949668" lon="23.4074496757">
        <ele>21.2</ele>
        <time>2012-03-19T07:31:42Z</time>
      </trkpt>
      <trkpt lat="59.9926153348" lon="23.4074904956">
        <ele>21.2</ele>
        <time>2012-03-19T07:31:44Z</time>
      </trkpt>
      <trkpt lat="59.9925372993" lon="23.4075458161">
        <ele>21.2</ele>
        <time>2012-03-19T07:31:48Z</time>
      </trkpt>
      <trkpt lat="59.9924768658" lon="23.4075803495">
        <ele>21.2</ele>
        <time>2012-03-19T07:31:52Z</time>
      </trkpt>
      <trkpt lat="59.9924223834" lon="23.4076164755">
        <ele>21.2</ele>
        <time>2012-03-19T07:31:59Z</time>
      </trkpt>
      <trkpt lat="59.9923829047" lon="23.4076619054">
        <ele>21.2</ele>
        <time>2012-03-19T07:32:05Z</time>
      </trkpt>
      <trkpt lat="59.9923808092" lon="23.4076971932">
        <ele>21.2</ele>
        <time>2012-03-19T07:32:11Z</time>
      </trkpt>
      <trkpt lat="59.9923368881" lon="23.4078606403">
        <ele>27.6</ele>
        <time>2012-03-19T07:33:56Z</time>
      </trkpt>
      <trkpt lat="59.9924240598" lon="23.4076450578">
        <ele>27.6</ele>
        <time>2012-03-19T07:34:00Z</time>
      </trkpt>
      <trkpt lat="59.9924514686" lon="23.4075684472">
        <ele>27.6</ele>
        <time>2012-03-19T07:34:01Z</time>
      </trkpt>
      <trkpt lat="59.9924968147" lon="23.407415729">
        <ele>27.6</ele>
        <time>2012-03-19T07:34:03Z</time>
      </trkpt>
      <trkpt lat="59.9924259038" lon="23.407270806">
        <ele>27.6</ele>
        <time>2012-03-19T07:34:06Z</time>
      </trkpt>
      <trkpt lat="59.9922468664" lon="23.40728933">
        <ele>27.8</ele>
        <time>2012-03-19T07:34:10Z</time>
      </trkpt>
      <trkpt lat="59.9922746105" lon="23.4072035831">
        <ele>27.8</ele>
        <time>2012-03-19T07:34:12Z</time>
      </trkpt>
      <trkpt lat="59.9923162686" lon="23.4071615898">
        <ele>27.8</ele>
        <time>2012-03-19T07:34:13Z</time>
      </trkpt>
      <trkpt lat="59.9923557473" lon="23.4071226978">
        <ele>27.8</ele>
        <time>2012-03-19T07:34:14Z</time>
      </trkpt>
      <trkpt lat="59.9924538994" lon="23.4070482665">
        <ele>27.8</ele>
        <time>2012-03-19T07:34:16Z</time>
      </trkpt>
      <trkpt lat="59.9924595991" lon="23.4071771801">
        <ele>27.8</ele>
        <time>2012-03-19T07:34:20Z</time>
      </trkpt>
      <trkpt lat="59.9924225511" lon="23.4072495159">
        <ele>27.8</ele>
        <time>2012-03-19T07:34:21Z</time>
      </trkpt>
      <trkpt lat="59.9923533166" lon="23.4074033238">
        <ele>27.8</ele>
        <time>2012-03-19T07:34:23Z</time>
      </trkpt>
      <trkpt lat="59.9923936335" lon="23.4075209219">
        <ele>27.8</ele>
        <time>2012-03-19T07:34:26Z</time>
      </trkpt>
      <trkpt lat="59.992608294" lon="23.4075126238">
        <ele>27.8</ele>
        <time>2012-03-19T07:34:30Z</time>
      </trkpt>
      <trkpt lat="59.9926130717" lon="23.4075707942">
        <ele>27.8</ele>
        <time>2012-03-19T07:34:32Z</time>
      </trkpt>
      <trkpt lat="59.9925866687" lon="23.4076008852">
        <ele>27.8</ele>
        <time>2012-03-19T07:34:33Z</time>
      </trkpt>
      <trkpt lat="59.9925109801" lon="23.407679675">
        <ele>27.8</ele>
        <time>2012-03-19T07:34:35Z</time>
      </trkpt>
      <trkpt lat="59.9923786299" lon="23.407785287">
        <ele>27.8</ele>
        <time>2012-03-19T07:34:39Z</time>
      </trkpt>
      <trkpt lat="59.9923703318" lon="23.4077636617">
        <ele>27.8</ele>
        <time>2012-03-19T07:34:43Z</time>
      </trkpt>
      <trkpt lat="59.9923901969" lon="23.4077613986">
        <ele>27.8</ele>
        <time>2012-03-19T07:34:49Z</time>
      </trkpt>
      <trkpt lat="59.9924011772" lon="23.4077265299">
        <ele>27.8</ele>
        <time>2012-03-19T07:35:06Z</time>
      </trkpt>
      <trkpt lat="59.9923882691" lon="23.4077028091">
        <ele>27.8</ele>
        <time>2012-03-19T07:35:22Z</time>
      </trkpt>
      <trkpt lat="59.9923698289" lon="23.4077242667">
        <ele>28.6</ele>
        <time>2012-03-19T07:35:36Z</time>
      </trkpt>
      <trkpt lat="59.9923286738" lon="23.4077546092">
        <ele>28.2</ele>
        <time>2012-03-19T07:36:22Z</time>
      </trkpt>
      <trkpt lat="59.9923145922" lon="23.407747317">
        <ele>27.8</ele>
        <time>2012-03-19T07:36:38Z</time>
      </trkpt>
      <trkpt lat="59.9924478644" lon="23.4074119572">
        <ele>27.4</ele>
        <time>2012-03-19T07:36:44Z</time>
      </trkpt>
      <trkpt lat="59.9924423324" lon="23.4072609991">
        <ele>27</ele>
        <time>2012-03-19T07:36:46Z</time>
      </trkpt>
      <trkpt lat="59.9923492094" lon="23.4072081093">
        <ele>26.8</ele>
        <time>2012-03-19T07:36:48Z</time>
      </trkpt>
      <trkpt lat="59.9921925517" lon="23.4071918485">
        <ele>26.4</ele>
        <time>2012-03-19T07:36:52Z</time>
      </trkpt>
      <trkpt lat="59.9922606966" lon="23.4071311635">
        <ele>26.2</ele>
        <time>2012-03-19T07:36:54Z</time>
      </trkpt>
      <trkpt lat="59.9923125805" lon="23.4070903436">
        <ele>26.2</ele>
        <time>2012-03-19T07:36:55Z</time>
      </trkpt>
      <trkpt lat="59.9924076313" lon="23.4070132302">
        <ele>26.2</ele>
        <time>2012-03-19T07:36:57Z</time>
      </trkpt>
      <trkpt lat="59.9924602696" lon="23.407105934">
        <ele>25.4</ele>
        <time>2012-03-19T07:37:00Z</time>
      </trkpt>
      <trkpt lat="59.992420288" lon="23.4072148987">
        <ele>25.2</ele>
        <time>2012-03-19T07:37:02Z</time>
      </trkpt>
      <trkpt lat="59.9923499638" lon="23.4073469974">
        <ele>24.8</ele>
        <time>2012-03-19T07:37:04Z</time>
      </trkpt>
      <trkpt lat="59.9924138339" lon="23.4075148869">
        <ele>24.4</ele>
        <time>2012-03-19T07:37:08Z</time>
      </trkpt>
      <trkpt lat="59.9925079626" lon="23.4075063373">
        <ele>24.2</ele>
        <time>2012-03-19T07:37:10Z</time>
      </trkpt>
      <trkpt lat="59.992600415" lon="23.4075199998">
        <ele>24.2</ele>
        <time>2012-03-19T07:37:13Z</time>
      </trkpt>
      <trkpt lat="59.9925678932" lon="23.4075722191">
        <ele>23.6</ele>
        <time>2012-03-19T07:37:15Z</time>
      </trkpt>
      <trkpt lat="59.992415175" lon="23.4077242667">
        <ele>23</ele>
        <time>2012-03-19T07:37:19Z</time>
      </trkpt>
      <trkpt lat="59.9923758639" lon="23.4077303855">
        <ele>22.4</ele>
        <time>2012-03-19T07:37:24Z</time>
      </trkpt>
      <trkpt lat="59.9923677334" lon="23.4077349956">
        <ele>22</ele>
        <time>2012-03-19T07:37:30Z</time>
      </trkpt>
      <trkpt lat="59.9923168553" lon="23.4077867119">
        <ele>19</ele>
        <time>2012-03-19T07:37:54Z</time>
      </trkpt>
      <trkpt lat="59.9924062064" lon="23.4076573792">
        <ele>17.6</ele>
        <time>2012-03-19T07:38:47Z</time>
      </trkpt>
      <trkpt lat="59.9924812244" lon="23.4074214287">
        <ele>18.2</ele>
        <time>2012-03-19T07:38:50Z</time>
      </trkpt>
      <trkpt lat="59.9923727626" lon="23.4072053433">
        <ele>18.6</ele>
        <time>2012-03-19T07:38:54Z</time>
      </trkpt>
      <trkpt lat="59.9922376464" lon="23.4072292317">
        <ele>18.8</ele>
        <time>2012-03-19T07:38:57Z</time>
      </trkpt>
      <trkpt lat="59.9922464474" lon="23.4071667866">
        <ele>19</ele>
        <time>2012-03-19T07:38:59Z</time>
      </trkpt>
      <trkpt lat="59.9922840821" lon="23.4071413056">
        <ele>19</ele>
        <time>2012-03-19T07:39:00Z</time>
      </trkpt>
      <trkpt lat="59.9923731817" lon="23.4070584924">
        <ele>19</ele>
        <time>2012-03-19T07:39:02Z</time>
      </trkpt>
      <trkpt lat="59.9924176896" lon="23.4070066923">
        <ele>19.2</ele>
        <time>2012-03-19T07:39:03Z</time>
      </trkpt>
      <trkpt lat="59.992494384" lon="23.4070967139">
        <ele>19.2</ele>
        <time>2012-03-19T07:39:06Z</time>
      </trkpt>
      <trkpt lat="59.9924336152" lon="23.4072255437">
        <ele>19.2</ele>
        <time>2012-03-19T07:39:08Z</time>
      </trkpt>
      <trkpt lat="59.9923528137" lon="23.407344399">
        <ele>19.4</ele>
        <time>2012-03-19T07:39:10Z</time>
      </trkpt>
      <trkpt lat="59.9923292605" lon="23.4075501747">
        <ele>19.4</ele>
        <time>2012-03-19T07:39:13Z</time>
      </trkpt>
      <trkpt lat="59.9924342857" lon="23.4075571317">
        <ele>19.4</ele>
        <time>2012-03-19T07:39:15Z</time>
      </trkpt>
      <trkpt lat="59.992532354" lon="23.4075242746">
        <ele>19.4</ele>
        <time>2012-03-19T07:39:17Z</time>
      </trkpt>
      <trkpt lat="59.9925995768" lon="23.4075603168">
        <ele>19.4</ele>
        <time>2012-03-19T07:39:20Z</time>
      </trkpt>
      <trkpt lat="59.992549453" lon="23.4076035674">
        <ele>19.4</ele>
        <time>2012-03-19T07:39:22Z</time>
      </trkpt>
      <trkpt lat="59.9923650512" lon="23.4077633264">
        <ele>19.4</ele>
        <time>2012-03-19T07:39:27Z</time>
      </trkpt>
      <trkpt lat="59.9923503829" lon="23.4077642484">
        <ele>19.4</ele>
        <time>2012-03-19T07:39:28Z</time>
      </trkpt>
      <trkpt lat="59.9923592677" lon="23.4077447186">
        <ele>19.4</ele>
        <time>2012-03-19T07:39:35Z</time>
      </trkpt>
      <trkpt lat="59.9923686555" lon="23.4077444671">
        <ele>19.4</ele>
        <time>2012-03-19T07:39:36Z</time>
      </trkpt>
      <trkpt lat="59.992379971" lon="23.4077523461">
        <ele>19.4</ele>
        <time>2012-03-19T07:39:40Z</time>
      </trkpt>
      <trkpt lat="59.9923639616" lon="23.4077699481">
        <ele>19.4</ele>
        <time>2012-03-19T07:39:56Z</time>
      </trkpt>
      <trkpt lat="59.9923518917" lon="23.4078185631">
        <ele>19.4</ele>
        <time>2012-03-19T07:40:31Z</time>
      </trkpt>
      <trkpt lat="59.9923445994" lon="23.4078115223">
        <ele>19.4</ele>
        <time>2012-03-19T07:40:47Z</time>
      </trkpt>
      <trkpt lat="59.9923366366" lon="23.407825101">
        <ele>19.4</ele>
        <time>2012-03-19T07:40:54Z</time>
      </trkpt>
      <trkpt lat="59.9922950624" lon="23.4078313874">
        <ele>15.8</ele>
        <time>2012-03-19T07:41:38Z</time>
      </trkpt>
      <trkpt lat="59.9924265744" lon="23.4074399527">
        <ele>15.6</ele>
        <time>2012-03-19T07:41:44Z</time>
      </trkpt>
      <trkpt lat="59.9924068769" lon="23.4072412178">
        <ele>15.6</ele>
        <time>2012-03-19T07:41:46Z</time>
      </trkpt>
      <trkpt lat="59.9922916258" lon="23.4072019906">
        <ele>15.6</ele>
        <time>2012-03-19T07:41:49Z</time>
      </trkpt>
      <trkpt lat="59.9922416697" lon="23.4072230291">
        <ele>15.6</ele>
        <time>2012-03-19T07:41:50Z</time>
      </trkpt>
      <trkpt lat="59.9921991734" lon="23.4072174133">
        <ele>15.4</ele>
        <time>2012-03-19T07:41:51Z</time>
      </trkpt>
      <trkpt lat="59.9921908754" lon="23.4071612545">
        <ele>15.4</ele>
        <time>2012-03-19T07:41:53Z</time>
      </trkpt>
      <trkpt lat="59.9923246505" lon="23.4070325924">
        <ele>15.4</ele>
        <time>2012-03-19T07:41:56Z</time>
      </trkpt>
      <trkpt lat="59.99237117" lon="23.4069893418">
        <ele>15.4</ele>
        <time>2012-03-19T07:41:57Z</time>
      </trkpt>
      <trkpt lat="59.9924083857" lon="23.4069982266">
        <ele>15.4</ele>
        <time>2012-03-19T07:41:58Z</time>
      </trkpt>
      <trkpt lat="59.9924077151" lon="23.4071635176">
        <ele>15.4</ele>
        <time>2012-03-19T07:42:01Z</time>
      </trkpt>
      <trkpt lat="59.9923347926" lon="23.4072916769">
        <ele>15.4</ele>
        <time>2012-03-19T07:42:03Z</time>
      </trkpt>
      <trkpt lat="59.9922721798" lon="23.407439366">
        <ele>15.4</ele>
        <time>2012-03-19T07:42:05Z</time>
      </trkpt>
      <trkpt lat="59.9923311045" lon="23.4075377695">
        <ele>15.4</ele>
        <time>2012-03-19T07:42:07Z</time>
      </trkpt>
      <trkpt lat="59.9923903646" lon="23.4075251966">
        <ele>15.4</ele>
        <time>2012-03-19T07:42:08Z</time>
      </trkpt>
      <trkpt lat="59.9925001675" lon="23.4074857179">
        <ele>15.4</ele>
        <time>2012-03-19T07:42:10Z</time>
      </trkpt>
      <trkpt lat="59.992575856" lon="23.4075442235">
        <ele>15.4</ele>
        <time>2012-03-19T07:42:13Z</time>
      </trkpt>
      <trkpt lat="59.9925557395" lon="23.4075695369">
        <ele>15.4</ele>
        <time>2012-03-19T07:42:14Z</time>
      </trkpt>
      <trkpt lat="59.9924773687" lon="23.4076490811">
        <ele>15.4</ele>
        <time>2012-03-19T07:42:16Z</time>
      </trkpt>
      <trkpt lat="59.9923379777" lon="23.407771373">
        <ele>15.4</ele>
        <time>2012-03-19T07:42:20Z</time>
      </trkpt>
      <trkpt lat="59.9923254887" lon="23.4077404438">
        <ele>15.4</ele>
        <time>2012-03-19T07:42:25Z</time>
      </trkpt>
      <trkpt lat="59.9923310207" lon="23.407734325">
        <ele>15.4</ele>
        <time>2012-03-19T07:42:26Z</time>
      </trkpt>
      <trkpt lat="59.9923367204" lon="23.4077277871">
        <ele>15.4</ele>
        <time>2012-03-19T07:42:27Z</time>
      </trkpt>
      <trkpt lat="59.9923373071" lon="23.4077323972">
        <ele>15.4</ele>
        <time>2012-03-19T07:42:35Z</time>
      </trkpt>
      <trkpt lat="59.9922978284" lon="23.4077587164">
        <ele>17.2</ele>
        <time>2012-03-19T07:43:56Z</time>
      </trkpt>
      <trkpt lat="59.9924102297" lon="23.4074774198">
        <ele>17.2</ele>
        <time>2012-03-19T07:44:00Z</time>
      </trkpt>
      <trkpt lat="59.9924138339" lon="23.4072778468">
        <ele>17.2</ele>
        <time>2012-03-19T07:44:02Z</time>
      </trkpt>
      <trkpt lat="59.9922675697" lon="23.4071625956">
        <ele>17.2</ele>
        <time>2012-03-19T07:44:05Z</time>
      </trkpt>
      <trkpt lat="59.9921648076" lon="23.4071401321">
        <ele>17.4</ele>
        <time>2012-03-19T07:44:08Z</time>
      </trkpt>
      <trkpt lat="59.9922372273" lon="23.4070799501">
        <ele>17.4</ele>
        <time>2012-03-19T07:44:10Z</time>
      </trkpt>
      <trkpt lat="59.9922913743" lon="23.4070400522">
        <ele>17.4</ele>
        <time>2012-03-19T07:44:11Z</time>
      </trkpt>
      <trkpt lat="59.9923427554" lon="23.4069935327">
        <ele>17.4</ele>
        <time>2012-03-19T07:44:12Z</time>
      </trkpt>
      <trkpt lat="59.992424898" lon="23.4070413095">
        <ele>17.4</ele>
        <time>2012-03-19T07:44:15Z</time>
      </trkpt>
      <trkpt lat="59.9923414981" lon="23.4072583169">
        <ele>17.4</ele>
        <time>2012-03-19T07:44:18Z</time>
      </trkpt>
      <trkpt lat="59.992305875" lon="23.4073339217">
        <ele>17.4</ele>
        <time>2012-03-19T07:44:19Z</time>
      </trkpt>
      <trkpt lat="59.9922831601" lon="23.4074182436">
        <ele>17.4</ele>
        <time>2012-03-19T07:44:20Z</time>
      </trkpt>
      <trkpt lat="59.9923522269" lon="23.4075493365">
        <ele>17.4</ele>
        <time>2012-03-19T07:44:23Z</time>
      </trkpt>
      <trkpt lat="59.9924776202" lon="23.4074972849">
        <ele>17.4</ele>
        <time>2012-03-19T07:44:25Z</time>
      </trkpt>
      <trkpt lat="59.9925768618" lon="23.4075130429">
        <ele>17.4</ele>
        <time>2012-03-19T07:44:28Z</time>
      </trkpt>
      <trkpt lat="59.9924901092" lon="23.4076080098">
        <ele>17.4</ele>
        <time>2012-03-19T07:44:31Z</time>
      </trkpt>
      <trkpt lat="59.9923919571" lon="23.4076934214">
        <ele>17.4</ele>
        <time>2012-03-19T07:44:33Z</time>
      </trkpt>
      <trkpt lat="59.9923158495" lon="23.4077770727">
        <ele>17.4</ele>
        <time>2012-03-19T07:44:35Z</time>
      </trkpt>
      <trkpt lat="59.9922998401" lon="23.4077781624">
        <ele>17.4</ele>
        <time>2012-03-19T07:44:39Z</time>
      </trkpt>
      <trkpt lat="59.9923294282" lon="23.4077501668">
        <ele>17.4</ele>
        <time>2012-03-19T07:44:45Z</time>
      </trkpt>
      <trkpt lat="59.9923428392" lon="23.4076775796">
        <ele>17.4</ele>
        <time>2012-03-19T07:45:00Z</time>
      </trkpt>
      <trkpt lat="59.9923207948" lon="23.4077083411">
        <ele>18.6</ele>
        <time>2012-03-19T07:45:54Z</time>
      </trkpt>
      <trkpt lat="59.9923163524" lon="23.4077282062">
        <ele>19.4</ele>
        <time>2012-03-19T07:46:10Z</time>
      </trkpt>
      <trkpt lat="59.9923219683" lon="23.407703312">
        <ele>19.4</ele>
        <time>2012-03-19T07:46:48Z</time>
      </trkpt>
      <trkpt lat="59.9923186155" lon="23.4076640847">
        <ele>21.8</ele>
        <time>2012-03-19T07:47:22Z</time>
      </trkpt>
      <trkpt lat="59.9923223874" lon="23.4076663478">
        <ele>23.6</ele>
        <time>2012-03-19T07:48:06Z</time>
      </trkpt>
      <trkpt lat="59.9923545739" lon="23.4076885599">
        <ele>23.2</ele>
        <time>2012-03-19T07:48:12Z</time>
      </trkpt>
      <trkpt lat="59.9923507182" lon="23.4076349157">
        <ele>22.6</ele>
        <time>2012-03-19T07:48:17Z</time>
      </trkpt>
      <trkpt lat="59.9923315236" lon="23.4075947664">
        <ele>21.8</ele>
        <time>2012-03-19T07:48:25Z</time>
      </trkpt>
      <trkpt lat="59.9922710901" lon="23.4074517712">
        <ele>20.8</ele>
        <time>2012-03-19T07:48:30Z</time>
      </trkpt>
      <trkpt lat="59.992229935" lon="23.4073242825">
        <ele>20.4</ele>
        <time>2012-03-19T07:48:34Z</time>
      </trkpt>
      <trkpt lat="59.9922051246" lon="23.4072463308">
        <ele>20</ele>
        <time>2012-03-19T07:48:37Z</time>
      </trkpt>
      <trkpt lat="59.9922109919" lon="23.4072196764">
        <ele>19.8</ele>
        <time>2012-03-19T07:48:42Z</time>
      </trkpt>
      <trkpt lat="59.9921622093" lon="23.4072473366">
        <ele>19.6</ele>
        <time>2012-03-19T07:48:52Z</time>
      </trkpt>
      <trkpt lat="59.9921110797" lon="23.4072955326">
        <ele>19.6</ele>
        <time>2012-03-19T07:48:58Z</time>
      </trkpt>
      <trkpt lat="59.9920644763" lon="23.4073260427">
        <ele>19.4</ele>
        <time>2012-03-19T07:49:03Z</time>
      </trkpt>
      <trkpt lat="59.9920354749" lon="23.4073518589">
        <ele>19.4</ele>
        <time>2012-03-19T07:49:07Z</time>
      </trkpt>
      <trkpt lat="59.9920198846" lon="23.4073655214">
        <ele>19.4</ele>
        <time>2012-03-19T07:49:09Z</time>
      </trkpt>
      <trkpt lat="59.9919527456" lon="23.4074036591">
        <ele>19.4</ele>
        <time>2012-03-19T07:49:16Z</time>
      </trkpt>
      <trkpt lat="59.9919462915" lon="23.4074057545">
        <ele>19.4</ele>
        <time>2012-03-19T07:49:17Z</time>
      </trkpt>
      <trkpt lat="59.9919624686" lon="23.4074355103">
        <ele>19.4</ele>
        <time>2012-03-19T07:49:27Z</time>
      </trkpt>
      <trkpt lat="59.9919859379" lon="23.4075270406">
        <ele>19.4</ele>
        <time>2012-03-19T07:49:38Z</time>
      </trkpt>
      <trkpt lat="59.9920327089" lon="23.4075339138">
        <ele>19.4</ele>
        <time>2012-03-19T07:49:40Z</time>
      </trkpt>
      <trkpt lat="59.9920731097" lon="23.4075224306">
        <ele>19.4</ele>
        <time>2012-03-19T07:49:42Z</time>
      </trkpt>
      <trkpt lat="59.9921348843" lon="23.4075122047">
        <ele>19</ele>
        <time>2012-03-19T07:49:45Z</time>
      </trkpt>
      <trkpt lat="59.9922828248" lon="23.4076726342">
        <ele>18.2</ele>
        <time>2012-03-19T07:49:51Z</time>
      </trkpt>
      <trkpt lat="59.9923306854" lon="23.4077232609">
        <ele>17.8</ele>
        <time>2012-03-19T07:49:56Z</time>
      </trkpt>
      <trkpt lat="59.9923425877" lon="23.4077419526">
        <ele>17.6</ele>
        <time>2012-03-19T07:50:04Z</time>
      </trkpt>
      <trkpt lat="59.9923286738" lon="23.407727368">
        <ele>17.4</ele>
        <time>2012-03-19T07:50:11Z</time>
      </trkpt>
      <trkpt lat="59.99226187" lon="23.4077876339">
        <ele>16.4</ele>
        <time>2012-03-19T07:50:19Z</time>
      </trkpt>
      <trkpt lat="59.9921316991" lon="23.4079011248">
        <ele>16</ele>
        <time>2012-03-19T07:50:25Z</time>
      </trkpt>
      <trkpt lat="59.9920617103" lon="23.4079773163">
        <ele>15.8</ele>
        <time>2012-03-19T07:50:29Z</time>
      </trkpt>
      <trkpt lat="59.9920373189" lon="23.4079997798">
        <ele>15.6</ele>
        <time>2012-03-19T07:50:32Z</time>
      </trkpt>
      <trkpt lat="59.9921376503" lon="23.408588273">
        <ele>15.4</ele>
        <time>2012-03-19T07:50:43Z</time>
      </trkpt>
      <trkpt lat="59.9921855109" lon="23.4089158376">
        <ele>15.4</ele>
        <time>2012-03-19T07:50:49Z</time>
      </trkpt>
      <trkpt lat="59.9921801465" lon="23.4093251258">
        <ele>15.4</ele>
        <time>2012-03-19T07:50:56Z</time>
      </trkpt>
      <trkpt lat="59.9921954016" lon="23.4096173189">
        <ele>15.4</ele>
        <time>2012-03-19T07:51:01Z</time>
      </trkpt>
      <trkpt lat="59.9922922963" lon="23.4097579671">
        <ele>15.4</ele>
        <time>2012-03-19T07:51:05Z</time>
      </trkpt>
      <trkpt lat="59.9924774525" lon="23.4099163851">
        <ele>15.4</ele>
        <time>2012-03-19T07:51:12Z</time>
      </trkpt>
      <trkpt lat="59.9926201125" lon="23.410118305">
        <ele>15.4</ele>
        <time>2012-03-19T07:51:18Z</time>
      </trkpt>
      <trkpt lat="59.9926360381" lon="23.4101551854">
        <ele>15.4</ele>
        <time>2012-03-19T07:51:19Z</time>
      </trkpt>
      <trkpt lat="59.9927151632" lon="23.410367918">
        <ele>15.4</ele>
        <time>2012-03-19T07:51:24Z</time>
      </trkpt>
      <trkpt lat="59.9927684721" lon="23.410513344">
        <ele>15.4</ele>
        <time>2012-03-19T07:51:29Z</time>
      </trkpt>
      <trkpt lat="59.9927978926" lon="23.4105933911">
        <ele>15.4</ele>
        <time>2012-03-19T07:51:36Z</time>
      </trkpt>
      <trkpt lat="59.9928008262" lon="23.4106034494">
        <ele>15.4</ele>
        <time>2012-03-19T07:51:37Z</time>
      </trkpt>
      <trkpt lat="59.9928307496" lon="23.4108335326">
        <ele>15.4</ele>
        <time>2012-03-19T07:51:42Z</time>
      </trkpt>
      <trkpt lat="59.9928448312" lon="23.410890278">
        <ele>15.4</ele>
        <time>2012-03-19T07:51:43Z</time>
      </trkpt>
      <trkpt lat="59.9929027501" lon="23.4111877516">
        <ele>15.4</ele>
        <time>2012-03-19T07:51:49Z</time>
      </trkpt>
      <trkpt lat="59.9929552208" lon="23.4114290665">
        <ele>15.4</ele>
        <time>2012-03-19T07:51:54Z</time>
      </trkpt>
      <trkpt lat="59.9929820429" lon="23.4115792702">
        <ele>15.4</ele>
        <time>2012-03-19T07:51:57Z</time>
      </trkpt>
      <trkpt lat="59.9929920174" lon="23.4117918352">
        <ele>15.4</ele>
        <time>2012-03-19T07:52:01Z</time>
      </trkpt>
      <trkpt lat="59.9929866529" lon="23.4120676835">
        <ele>15.8</ele>
        <time>2012-03-19T07:52:06Z</time>
      </trkpt>
      <trkpt lat="59.9929830487" lon="23.4123583678">
        <ele>16.6</ele>
        <time>2012-03-19T07:52:12Z</time>
      </trkpt>
      <trkpt lat="59.9929747506" lon="23.4124593697">
        <ele>16.8</ele>
        <time>2012-03-19T07:52:14Z</time>
      </trkpt>
      <trkpt lat="59.9929543826" lon="23.4127809832">
        <ele>17.2</ele>
        <time>2012-03-19T07:52:20Z</time>
      </trkpt>
      <trkpt lat="59.9929315" lon="23.4130370502">
        <ele>17.8</ele>
        <time>2012-03-19T07:52:25Z</time>
      </trkpt>
      <trkpt lat="59.9929141495" lon="23.4133394692">
        <ele>18.6</ele>
        <time>2012-03-19T07:52:31Z</time>
      </trkpt>
      <trkpt lat="59.992904678" lon="23.4135672892">
        <ele>19</ele>
        <time>2012-03-19T07:52:36Z</time>
      </trkpt>
      <trkpt lat="59.9928992297" lon="23.4137223544">
        <ele>19.2</ele>
        <time>2012-03-19T07:52:39Z</time>
      </trkpt>
      <trkpt lat="59.9928843099" lon="23.4139149704">
        <ele>19.4</ele>
        <time>2012-03-19T07:52:43Z</time>
      </trkpt>
      <trkpt lat="59.9928803704" lon="23.4139692852">
        <ele>19.4</ele>
        <time>2012-03-19T07:52:44Z</time>
      </trkpt>
      <trkpt lat="59.9928612597" lon="23.4143022142">
        <ele>19.6</ele>
        <time>2012-03-19T07:52:50Z</time>
      </trkpt>
      <trkpt lat="59.992862517" lon="23.4145131867">
        <ele>19.6</ele>
        <time>2012-03-19T07:52:54Z</time>
      </trkpt>
      <trkpt lat="59.9929040074" lon="23.4147818265">
        <ele>19.6</ele>
        <time>2012-03-19T07:52:59Z</time>
      </trkpt>
      <trkpt lat="59.992956981" lon="23.4150068806">
        <ele>20.4</ele>
        <time>2012-03-19T07:53:04Z</time>
      </trkpt>
      <trkpt lat="59.9930132236" lon="23.4152457647">
        <ele>21</ele>
        <time>2012-03-19T07:53:09Z</time>
      </trkpt>
      <trkpt lat="59.9930846374" lon="23.4154794521">
        <ele>21.2</ele>
        <time>2012-03-19T07:53:14Z</time>
      </trkpt>
      <trkpt lat="59.993158901" lon="23.4157008181">
        <ele>21.4</ele>
        <time>2012-03-19T07:53:19Z</time>
      </trkpt>
      <trkpt lat="59.9932771696" lon="23.4160087691">
        <ele>21.6</ele>
        <time>2012-03-19T07:53:26Z</time>
      </trkpt>
      <trkpt lat="59.9933412073" lon="23.416217646">
        <ele>21.6</ele>
        <time>2012-03-19T07:53:31Z</time>
      </trkpt>
      <trkpt lat="59.9934054127" lon="23.4164337314">
        <ele>21.8</ele>
        <time>2012-03-19T07:53:36Z</time>
      </trkpt>
      <trkpt lat="59.9935600587" lon="23.4168178739">
        <ele>23</ele>
        <time>2012-03-19T07:53:46Z</time>
      </trkpt>
      <trkpt lat="59.993642369" lon="23.4170494658">
        <ele>23.6</ele>
        <time>2012-03-19T07:53:52Z</time>
      </trkpt>
      <trkpt lat="59.9937470589" lon="23.4172709156">
        <ele>24.6</ele>
        <time>2012-03-19T07:53:58Z</time>
      </trkpt>
      <trkpt lat="59.9938568618" lon="23.4174170959">
        <ele>25</ele>
        <time>2012-03-19T07:54:03Z</time>
      </trkpt>
      <trkpt lat="59.9940097477" lon="23.4175406451">
        <ele>25.4</ele>
        <time>2012-03-19T07:54:09Z</time>
      </trkpt>
      <trkpt lat="59.9941606219" lon="23.4176997336">
        <ele>25.4</ele>
        <time>2012-03-19T07:54:15Z</time>
      </trkpt>
      <trkpt lat="59.9942831652" lon="23.4179483407">
        <ele>25.6</ele>
        <time>2012-03-19T07:54:22Z</time>
      </trkpt>
      <trkpt lat="59.9943487117" lon="23.4182034858">
        <ele>25.6</ele>
        <time>2012-03-19T07:54:28Z</time>
      </trkpt>
      <trkpt lat="59.9944057924" lon="23.4184671803">
        <ele>25.4</ele>
        <time>2012-03-19T07:54:34Z</time>
      </trkpt>
      <trkpt lat="59.9944619512" lon="23.4186701061">
        <ele>24.8</ele>
        <time>2012-03-19T07:54:38Z</time>
      </trkpt>
      <trkpt lat="59.9945281682" lon="23.4189428532">
        <ele>24.4</ele>
        <time>2012-03-19T07:54:43Z</time>
      </trkpt>
      <trkpt lat="59.9945962292" lon="23.4192189529">
        <ele>23.8</ele>
        <time>2012-03-19T07:54:49Z</time>
      </trkpt>
      <trkpt lat="59.9946521365" lon="23.4194368823">
        <ele>22.8</ele>
        <time>2012-03-19T07:54:54Z</time>
      </trkpt>
      <trkpt lat="59.9947283279" lon="23.4197650337">
        <ele>22</ele>
        <time>2012-03-19T07:55:01Z</time>
      </trkpt>
      <trkpt lat="59.9947723329" lon="23.4200057619">
        <ele>21.8</ele>
        <time>2012-03-19T07:55:06Z</time>
      </trkpt>
      <trkpt lat="59.9948435791" lon="23.420293764">
        <ele>21.6</ele>
        <time>2012-03-19T07:55:12Z</time>
      </trkpt>
      <trkpt lat="59.9949149929" lon="23.4205723783">
        <ele>21.4</ele>
        <time>2012-03-19T07:55:18Z</time>
      </trkpt>
      <trkpt lat="59.9949799526" lon="23.4209069838">
        <ele>21.4</ele>
        <time>2012-03-19T07:55:25Z</time>
      </trkpt>
      <trkpt lat="59.9950113847" lon="23.4211426828">
        <ele>21.4</ele>
        <time>2012-03-19T07:55:30Z</time>
      </trkpt>
      <trkpt lat="59.995023287" lon="23.421388943">
        <ele>21</ele>
        <time>2012-03-19T07:55:35Z</time>
      </trkpt>
      <trkpt lat="59.9950157433" lon="23.4217509573">
        <ele>20</ele>
        <time>2012-03-19T07:55:42Z</time>
      </trkpt>
      <trkpt lat="59.9950012426" lon="23.422064608">
        <ele>19.8</ele>
        <time>2012-03-19T07:55:48Z</time>
      </trkpt>
      <trkpt lat="59.9949884183" lon="23.4223827849">
        <ele>19.6</ele>
        <time>2012-03-19T07:55:54Z</time>
      </trkpt>
      <trkpt lat="59.9949900109" lon="23.4227145405">
        <ele>19.4</ele>
        <time>2012-03-19T07:56:00Z</time>
      </trkpt>
      <trkpt lat="59.9949909329" lon="23.4228219127">
        <ele>19.4</ele>
        <time>2012-03-19T07:56:02Z</time>
      </trkpt>
      <trkpt lat="59.9950077805" lon="23.4230740402">
        <ele>20.2</ele>
        <time>2012-03-19T07:56:07Z</time>
      </trkpt>
      <trkpt lat="59.9950168329" lon="23.4231187996">
        <ele>20.4</ele>
        <time>2012-03-19T07:56:08Z</time>
      </trkpt>
      <trkpt lat="59.9950999814" lon="23.4234413351">
        <ele>21.6</ele>
        <time>2012-03-19T07:56:15Z</time>
      </trkpt>
      <trkpt lat="59.9951567268" lon="23.4236589292">
        <ele>22.4</ele>
        <time>2012-03-19T07:56:20Z</time>
      </trkpt>
      <trkpt lat="59.9951949483" lon="23.4238854081">
        <ele>23</ele>
        <time>2012-03-19T07:56:25Z</time>
      </trkpt>
      <trkpt lat="59.9952138914" lon="23.4239798721">
        <ele>23</ele>
        <time>2012-03-19T07:56:27Z</time>
      </trkpt>
      <trkpt lat="59.9951346825" lon="23.4241235379">
        <ele>23.4</ele>
        <time>2012-03-19T07:56:32Z</time>
      </trkpt>
      <trkpt lat="59.995118673" lon="23.4241365299">
        <ele>23.4</ele>
        <time>2012-03-19T07:56:33Z</time>
      </trkpt>
      <trkpt lat="59.9949136517" lon="23.4243081074">
        <ele>23.6</ele>
        <time>2012-03-19T07:56:41Z</time>
      </trkpt>
      <trkpt lat="59.9947750989" lon="23.4244180779">
        <ele>23.6</ele>
        <time>2012-03-19T07:56:47Z</time>
      </trkpt>
      <trkpt lat="59.994660686" lon="23.4245419624">
        <ele>23.6</ele>
        <time>2012-03-19T07:56:52Z</time>
      </trkpt>
      <trkpt lat="59.9945751068" lon="23.4246552857">
        <ele>23.6</ele>
        <time>2012-03-19T07:56:56Z</time>
      </trkpt>
      <trkpt lat="59.9944637952" lon="23.4248408609">
        <ele>23.6</ele>
        <time>2012-03-19T07:57:01Z</time>
      </trkpt>
      <trkpt lat="59.9943570936" lon="23.4250347343">
        <ele>23.6</ele>
        <time>2012-03-19T07:57:06Z</time>
      </trkpt>
      <trkpt lat="59.9942585224" lon="23.4252377439">
        <ele>23.6</ele>
        <time>2012-03-19T07:57:11Z</time>
      </trkpt>
      <trkpt lat="59.9942371486" lon="23.4252863589">
        <ele>23.6</ele>
        <time>2012-03-19T07:57:12Z</time>
      </trkpt>
      <trkpt lat="59.9941662377" lon="23.4254921345">
        <ele>23.2</ele>
        <time>2012-03-19T07:57:17Z</time>
      </trkpt>
      <trkpt lat="59.9941013618" lon="23.4256575094">
        <ele>22.6</ele>
        <time>2012-03-19T07:57:21Z</time>
      </trkpt>
      <trkpt lat="59.9940357315" lon="23.4258903586">
        <ele>22.2</ele>
        <time>2012-03-19T07:57:27Z</time>
      </trkpt>
      <trkpt lat="59.9940374079" lon="23.4259129897">
        <ele>22.2</ele>
        <time>2012-03-19T07:57:28Z</time>
      </trkpt>
      <trkpt lat="59.9940450355" lon="23.4259264846">
        <ele>22</ele>
        <time>2012-03-19T07:57:32Z</time>
      </trkpt>
      <trkpt lat="59.9940481368" lon="23.4259244729">
        <ele>22</ele>
        <time>2012-03-19T07:57:33Z</time>
      </trkpt>
      <trkpt lat="59.9940775572" lon="23.4259605151">
        <ele>21.8</ele>
        <time>2012-03-19T07:57:38Z</time>
      </trkpt>
      <trkpt lat="59.9940860229" lon="23.425961018">
        <ele>21.8</ele>
        <time>2012-03-19T07:57:42Z</time>
      </trkpt>
      <trkpt lat="59.9941426008" lon="23.4261068631">
        <ele>21.6</ele>
        <time>2012-03-19T07:57:47Z</time>
      </trkpt>
      <trkpt lat="59.9942439379" lon="23.4263273071">
        <ele>20.8</ele>
        <time>2012-03-19T07:57:53Z</time>
      </trkpt>
      <trkpt lat="59.9943201294" lon="23.4264887425">
        <ele>20.4</ele>
        <time>2012-03-19T07:57:58Z</time>
      </trkpt>
      <trkpt lat="59.9944498812" lon="23.4267476593">
        <ele>20</ele>
        <time>2012-03-19T07:58:05Z</time>
      </trkpt>
      <trkpt lat="59.9945920382" lon="23.4269735516">
        <ele>19.8</ele>
        <time>2012-03-19T07:58:12Z</time>
      </trkpt>
      <trkpt lat="59.9947456785" lon="23.4271154571">
        <ele>19.6</ele>
        <time>2012-03-19T07:58:18Z</time>
      </trkpt>
      <trkpt lat="59.9948913559" lon="23.427240096">
        <ele>19.6</ele>
        <time>2012-03-19T07:58:24Z</time>
      </trkpt>
    </trkseg>
  </trk>
</gpx>